createdAt,value
2019-03-15T00:00:41.150Z,27.30
2019-03-15T00:01:46.428Z,27.57
2019-03-15T00:02:50.060Z,28.47
2019-03-15T00:03:53.728Z,30.07
2019-03-15T00:04:57.727Z,28.63
2019-03-15T00:06:01.421Z,25.57
2019-03-15T00:07:05.063Z,28.20
2019-03-15T00:08:09.114Z,25.53
2019-03-15T00:09:12.784Z,26.67
2019-03-15T00:10:16.806Z,25.50
2019-03-15T00:11:20.812Z,27.53
2019-03-15T00:12:24.448Z,24.10
2019-03-15T00:13:28.083Z,22.63
2019-03-15T00:14:31.754Z,23.70
2019-03-15T00:15:35.392Z,24.60
2019-03-15T00:16:39.035Z,23.43
2019-03-15T00:17:42.666Z,21.23
2019-03-15T00:18:46.946Z,20.17
2019-03-15T00:19:50.712Z,27.70
2019-03-15T00:20:54.346Z,22.33
2019-03-15T00:21:58.065Z,22.63
2019-03-15T00:23:01.690Z,25.30
2019-03-15T00:24:05.322Z,22.90
2019-03-15T00:25:09.057Z,19.83
2019-03-15T00:26:12.697Z,22.23
2019-03-15T00:27:16.333Z,22.60
2019-03-15T00:28:19.962Z,21.97
2019-03-15T00:29:23.604Z,21.37
2019-03-15T00:30:27.231Z,19.83
2019-03-15T00:31:30.864Z,23.60
2019-03-15T00:32:34.675Z,21.73
2019-03-15T00:33:38.401Z,18.40
2019-03-15T00:34:42.686Z,21.73
2019-03-15T00:35:46.875Z,21.60
2019-03-15T00:36:50.875Z,20.67
2019-03-15T00:37:54.506Z,23.07
2019-03-15T00:38:58.135Z,21.00
2019-03-15T00:40:01.841Z,24.90
2019-03-15T00:41:05.525Z,24.30
2019-03-15T00:42:09.577Z,22.63
2019-03-15T00:43:13.198Z,22.43
2019-03-15T00:44:16.828Z,23.47
2019-03-15T00:45:20.453Z,24.20
2019-03-15T00:46:24.464Z,25.30
2019-03-15T00:47:28.421Z,24.60
2019-03-15T00:48:32.051Z,23.17
2019-03-15T00:49:35.684Z,25.30
2019-03-15T00:50:39.314Z,22.97
2019-03-15T00:51:42.988Z,27.00
2019-03-15T00:52:46.623Z,28.17
2019-03-15T00:53:50.254Z,24.33
2019-03-15T00:54:53.885Z,26.37
2019-03-15T00:55:57.510Z,25.87
2019-03-15T00:57:01.176Z,26.53
2019-03-15T00:58:04.809Z,24.73
2019-03-15T00:59:08.458Z,25.80
2019-03-15T01:00:16.510Z,28.00
2019-03-15T01:01:20.577Z,30.77
2019-03-15T01:02:24.389Z,28.77
2019-03-15T01:03:28.015Z,25.97
2019-03-15T01:04:31.656Z,27.90
2019-03-15T01:05:35.287Z,28.60
2019-03-15T01:06:38.937Z,26.33
2019-03-15T01:07:42.538Z,27.53
2019-03-15T01:08:46.242Z,29.07
2019-03-15T01:09:49.880Z,29.83
2019-03-15T01:10:53.615Z,30.40
2019-03-15T01:11:57.244Z,31.03
2019-03-15T01:13:01.029Z,29.23
2019-03-15T01:14:04.672Z,31.90
2019-03-15T01:15:10.938Z,27.20
2019-03-15T01:16:14.561Z,28.97
2019-03-15T01:17:18.199Z,28.30
2019-03-15T01:18:22.232Z,29.80
2019-03-15T01:19:26.186Z,28.90
2019-03-15T01:20:29.891Z,30.57
2019-03-15T01:21:33.525Z,31.43
2019-03-15T01:22:37.154Z,30.00
2019-03-15T01:23:40.826Z,29.23
2019-03-15T01:24:44.453Z,30.27
2019-03-15T01:25:48.160Z,32.37
2019-03-15T01:26:51.858Z,28.67
2019-03-15T01:27:55.498Z,28.30
2019-03-15T01:28:59.459Z,28.10
2019-03-15T01:30:03.163Z,26.77
2019-03-15T01:31:06.871Z,27.87
2019-03-15T01:32:10.507Z,29.20
2019-03-15T01:33:14.135Z,29.97
2019-03-15T01:34:18.197Z,30.47
2019-03-15T01:35:21.839Z,31.27
2019-03-15T01:36:25.929Z,33.90
2019-03-15T01:37:29.559Z,30.87
2019-03-15T01:38:33.196Z,32.70
2019-03-15T01:39:36.838Z,32.20
2019-03-15T01:40:40.470Z,28.73
2019-03-15T01:41:44.169Z,29.70
2019-03-15T01:42:48.045Z,30.80
2019-03-15T01:43:51.820Z,26.83
2019-03-15T01:44:55.515Z,28.23
2019-03-15T01:45:59.225Z,31.23
2019-03-15T01:47:02.866Z,29.23
2019-03-15T01:48:06.598Z,27.27
2019-03-15T01:49:10.229Z,27.90
2019-03-15T01:50:13.901Z,29.67
2019-03-15T01:51:17.603Z,27.80
2019-03-15T01:52:21.311Z,33.83
2019-03-15T01:53:24.882Z,26.60
2019-03-15T01:54:28.512Z,28.90
2019-03-15T01:55:32.262Z,31.03
2019-03-15T01:56:35.974Z,32.07
2019-03-15T01:57:39.671Z,34.60
2019-03-15T01:58:43.312Z,32.87
2019-03-15T01:59:46.872Z,31.67
2019-03-15T02:00:50.546Z,33.27
2019-03-15T02:01:54.244Z,34.77
2019-03-15T02:02:57.876Z,30.17
2019-03-15T02:04:01.507Z,35.13
2019-03-15T02:05:05.848Z,30.60
2019-03-15T02:06:09.587Z,32.90
2019-03-15T02:07:13.307Z,30.67
2019-03-15T02:08:16.930Z,31.00
2019-03-15T02:09:20.601Z,28.77
2019-03-15T02:10:24.156Z,27.20
2019-03-15T02:11:27.853Z,32.37
2019-03-15T02:12:31.495Z,32.43
2019-03-15T02:13:35.054Z,29.43
2019-03-15T02:14:38.721Z,32.47
2019-03-15T02:15:43.424Z,32.23
2019-03-15T02:16:47.395Z,34.43
2019-03-15T02:17:51.032Z,30.87
2019-03-15T02:18:54.665Z,32.30
2019-03-15T02:19:58.652Z,31.33
2019-03-15T02:21:02.410Z,31.57
2019-03-15T02:22:06.114Z,33.07
2019-03-15T02:23:09.759Z,33.50
2019-03-15T02:24:13.571Z,31.17
2019-03-15T02:25:17.512Z,30.13
2019-03-15T02:26:21.147Z,31.03
2019-03-15T02:27:24.846Z,32.40
2019-03-15T02:28:28.498Z,31.83
2019-03-15T02:29:32.120Z,32.73
2019-03-15T02:30:35.787Z,31.43
2019-03-15T02:31:39.421Z,31.47
2019-03-15T02:32:43.046Z,36.33
2019-03-15T02:33:46.671Z,38.27
2019-03-15T02:34:50.334Z,34.73
2019-03-15T02:35:53.996Z,32.50
2019-03-15T02:36:57.707Z,33.17
2019-03-15T02:38:01.343Z,30.53
2019-03-15T02:39:06.484Z,34.13
2019-03-15T02:40:10.369Z,32.67
2019-03-15T02:41:14.061Z,32.77
2019-03-15T02:42:17.770Z,32.13
2019-03-15T02:43:21.403Z,31.87
2019-03-15T02:44:25.364Z,31.07
2019-03-15T02:45:29.571Z,28.30
2019-03-15T02:46:33.215Z,30.90
2019-03-15T02:47:36.888Z,26.23
2019-03-15T02:48:40.839Z,27.87
2019-03-15T02:49:44.764Z,26.37
2019-03-15T02:50:48.493Z,26.37
2019-03-15T02:51:52.154Z,25.57
2019-03-15T02:52:55.834Z,26.03
2019-03-15T02:54:00.903Z,25.00
2019-03-15T02:55:05.983Z,26.00
2019-03-15T02:56:09.643Z,28.30
2019-03-15T02:57:13.267Z,26.50
2019-03-15T02:58:17.003Z,28.83
2019-03-15T02:59:21.129Z,31.90
2019-03-15T03:00:24.939Z,27.77
2019-03-15T03:01:28.582Z,23.17
2019-03-15T03:02:32.239Z,27.50
2019-03-15T03:03:35.845Z,23.37
2019-03-15T03:04:40.909Z,29.73
2019-03-15T03:05:44.967Z,27.80
2019-03-15T03:06:48.932Z,26.33
2019-03-15T03:07:52.605Z,29.80
2019-03-15T03:08:56.320Z,28.80
2019-03-15T03:10:01.014Z,29.30
2019-03-15T03:11:05.344Z,30.90
2019-03-15T03:12:08.981Z,31.73
2019-03-15T03:13:12.654Z,29.50
2019-03-15T03:14:16.297Z,28.83
2019-03-15T03:15:19.924Z,28.43
2019-03-15T03:16:23.562Z,25.27
2019-03-15T03:17:27.196Z,33.80
2019-03-15T03:18:30.874Z,30.27
2019-03-15T03:19:34.553Z,27.10
2019-03-15T03:20:38.214Z,26.77
2019-03-15T03:21:42.315Z,24.70
2019-03-15T03:22:46.170Z,27.77
2019-03-15T03:23:49.838Z,28.00
2019-03-15T03:24:53.477Z,32.47
2019-03-15T03:25:57.122Z,30.17
2019-03-15T03:27:00.753Z,26.97
2019-03-15T03:28:04.409Z,28.85
2019-03-15T03:29:08.075Z,30.00
2019-03-15T03:30:12.060Z,28.33
2019-03-15T03:31:16.404Z,28.23
2019-03-15T03:32:20.429Z,29.37
2019-03-15T03:33:24.070Z,25.73
2019-03-15T03:34:27.682Z,31.97
2019-03-15T03:35:31.315Z,31.07
2019-03-15T03:36:35.320Z,30.67
2019-03-15T03:37:39.439Z,33.50
2019-03-15T03:38:43.078Z,34.97
2019-03-15T03:39:46.745Z,34.60
2019-03-15T03:40:50.791Z,29.03
2019-03-15T03:41:55.038Z,31.63
2019-03-15T03:42:59.127Z,27.90
2019-03-15T03:44:02.868Z,33.20
2019-03-15T03:45:08.325Z,28.15
2019-03-15T03:46:11.952Z,27.00
2019-03-15T03:47:15.602Z,30.37
2019-03-15T03:48:19.228Z,25.60
2019-03-15T03:49:22.870Z,28.33
2019-03-15T03:50:26.517Z,26.87
2019-03-15T03:51:30.226Z,29.60
2019-03-15T03:52:34.064Z,30.65
2019-03-15T03:53:37.746Z,30.37
2019-03-15T03:54:41.374Z,26.63
2019-03-15T03:55:45.125Z,25.77
2019-03-15T03:56:48.852Z,29.10
2019-03-15T03:57:52.481Z,24.70
2019-03-15T03:58:56.206Z,24.50
2019-03-15T03:59:59.892Z,23.63
2019-03-15T04:01:07.331Z,23.97
2019-03-15T04:02:09.282Z,22.83
2019-03-15T04:03:12.918Z,26.30
2019-03-15T04:04:16.556Z,22.53
2019-03-15T04:05:20.206Z,27.87
2019-03-15T04:06:23.889Z,26.10
2019-03-15T04:07:27.827Z,24.87
2019-03-15T04:08:31.475Z,25.35
2019-03-15T04:09:35.117Z,24.85
2019-03-15T04:10:38.766Z,25.05
2019-03-15T04:11:54.609Z,24.10
2019-03-15T04:12:47.807Z,25.75
2019-03-15T04:13:51.452Z,26.07
2019-03-15T04:14:55.099Z,27.32
2019-03-15T04:15:58.735Z,30.23
2019-03-15T04:17:02.419Z,25.60
2019-03-15T04:18:06.787Z,28.53
2019-03-15T04:19:10.501Z,58.73
2019-03-15T04:20:14.447Z,27.27
2019-03-15T04:21:18.159Z,26.77
2019-03-15T04:22:21.809Z,30.12
2019-03-15T04:23:25.403Z,28.25
2019-03-15T04:24:29.418Z,27.17
2019-03-15T04:25:33.056Z,25.50
2019-03-15T04:26:36.704Z,25.10
2019-03-15T04:27:40.700Z,22.90
2019-03-15T04:28:44.367Z,26.83
2019-03-15T04:29:47.936Z,25.60
2019-03-15T04:30:51.594Z,24.72
2019-03-15T04:31:55.221Z,25.57
2019-03-15T04:32:59.381Z,26.57
2019-03-15T04:34:03.105Z,28.77
2019-03-15T04:35:07.231Z,29.18
2019-03-15T04:36:10.872Z,25.43
2019-03-15T04:37:14.516Z,30.08
2019-03-15T04:38:18.129Z,26.07
2019-03-15T04:39:21.787Z,26.35
2019-03-15T04:40:25.435Z,26.42
2019-03-15T04:41:29.191Z,27.70
2019-03-15T04:42:32.918Z,28.40
2019-03-15T04:43:36.566Z,25.20
2019-03-15T04:44:40.223Z,29.80
2019-03-15T04:45:43.861Z,27.53
2019-03-15T04:46:47.500Z,28.98
2019-03-15T04:47:51.147Z,26.62
2019-03-15T04:48:54.790Z,30.23
2019-03-15T04:49:58.530Z,33.37
2019-03-15T04:51:02.177Z,28.85
2019-03-15T04:52:06.155Z,27.87
2019-03-15T04:53:09.803Z,28.42
2019-03-15T04:54:13.383Z,33.95
2019-03-15T04:55:17.058Z,34.27
2019-03-15T04:56:21.693Z,30.92
2019-03-15T04:57:25.319Z,30.50
2019-03-15T04:58:33.294Z,26.15
2019-03-15T04:59:37.010Z,25.75
2019-03-15T05:00:40.706Z,31.85
2019-03-15T05:01:44.353Z,32.75
2019-03-15T05:02:48.086Z,32.83
2019-03-15T05:03:51.737Z,27.35
2019-03-15T05:04:55.371Z,29.10
2019-03-15T05:06:03.688Z,33.80
2019-03-15T05:07:04.518Z,31.23
2019-03-15T05:08:08.248Z,29.70
2019-03-15T05:09:11.826Z,35.75
2019-03-15T05:10:15.865Z,28.10
2019-03-15T05:11:19.482Z,27.37
2019-03-15T05:12:23.491Z,27.27
2019-03-15T05:13:27.492Z,28.90
2019-03-15T05:14:31.088Z,28.52
2019-03-15T05:15:34.730Z,26.60
2019-03-15T05:16:38.412Z,27.40
2019-03-15T05:17:42.133Z,27.20
2019-03-15T05:18:45.702Z,28.10
2019-03-15T05:19:49.353Z,30.55
2019-03-15T05:20:52.989Z,28.92
2019-03-15T05:21:56.673Z,28.35
2019-03-15T05:23:00.321Z,28.25
2019-03-15T05:24:03.968Z,29.57
2019-03-15T05:25:08.345Z,35.30
2019-03-15T05:26:11.956Z,32.15
2019-03-15T05:27:15.628Z,31.95
2019-03-15T05:28:19.279Z,30.75
2019-03-15T05:29:23.003Z,34.60
2019-03-15T05:30:29.474Z,34.58
2019-03-15T05:31:35.836Z,40.98
2019-03-15T05:32:44.167Z,32.85
2019-03-15T05:33:47.788Z,32.93
2019-03-15T05:34:51.764Z,32.85
2019-03-15T05:35:55.345Z,34.35
2019-03-15T05:36:59.006Z,35.30
2019-03-15T05:38:03.821Z,32.08
2019-03-15T05:39:08.531Z,36.50
2019-03-15T05:40:12.218Z,34.53
2019-03-15T05:41:15.873Z,41.60
2019-03-15T05:42:23.435Z,33.95
2019-03-15T05:43:27.109Z,33.35
2019-03-15T05:44:30.893Z,37.90
2019-03-15T05:45:34.544Z,37.35
2019-03-15T05:46:38.185Z,34.40
2019-03-15T05:47:41.830Z,36.03
2019-03-15T05:48:45.437Z,36.30
2019-03-15T05:49:49.080Z,35.03
2019-03-15T05:50:52.740Z,33.05
2019-03-15T05:51:58.267Z,36.00
2019-03-15T05:53:02.230Z,37.20
2019-03-15T05:54:05.880Z,33.08
2019-03-15T05:55:12.027Z,33.60
2019-03-15T05:56:15.684Z,32.45
2019-03-15T05:57:19.330Z,33.40
2019-03-15T05:58:22.948Z,35.83
2019-03-15T05:59:26.953Z,33.28
2019-03-15T06:00:30.605Z,34.63
2019-03-15T06:01:34.239Z,32.93
2019-03-15T06:02:37.879Z,37.45
2019-03-15T06:03:48.480Z,31.55
2019-03-15T06:04:46.918Z,28.30
2019-03-15T06:05:50.579Z,29.45
2019-03-15T06:06:54.241Z,30.48
2019-03-15T06:07:57.872Z,30.03
2019-03-15T06:09:01.519Z,41.97
2019-03-15T06:10:08.117Z,28.00
2019-03-15T06:11:11.746Z,32.70
2019-03-15T06:12:15.373Z,31.83
2019-03-15T06:13:19.029Z,33.13
2019-03-15T06:14:22.729Z,31.00
2019-03-15T06:15:26.402Z,29.80
2019-03-15T06:16:30.035Z,27.30
2019-03-15T06:17:33.665Z,28.20
2019-03-15T06:18:37.308Z,27.47
2019-03-15T06:19:40.965Z,28.90
2019-03-15T06:20:44.639Z,26.13
2019-03-15T06:21:48.259Z,29.17
2019-03-15T06:22:51.896Z,29.00
2019-03-15T06:23:55.635Z,40.17
2019-03-15T06:24:59.263Z,32.67
2019-03-15T06:26:02.928Z,26.07
2019-03-15T06:27:06.562Z,26.47
2019-03-15T06:28:10.200Z,29.60
2019-03-15T06:29:13.829Z,25.93
2019-03-15T06:30:17.479Z,28.03
2019-03-15T06:31:21.317Z,27.60
2019-03-15T06:32:24.856Z,28.67
2019-03-15T06:33:28.970Z,26.03
2019-03-15T06:34:33.070Z,26.47
2019-03-15T06:35:36.703Z,22.43
2019-03-15T06:36:42.007Z,24.80
2019-03-15T06:37:45.631Z,20.50
2019-03-15T06:38:49.339Z,23.57
2019-03-15T06:39:52.977Z,21.77
2019-03-15T06:40:56.612Z,24.87
2019-03-15T06:42:00.288Z,25.73
2019-03-15T06:43:03.923Z,25.17
2019-03-15T06:44:07.552Z,23.87
2019-03-15T06:45:12.801Z,28.63
2019-03-15T06:46:16.362Z,29.53
2019-03-15T06:47:20.023Z,30.53
2019-03-15T06:48:23.580Z,26.97
2019-03-15T06:49:27.227Z,23.17
2019-03-15T06:50:30.874Z,21.83
2019-03-15T06:51:34.498Z,23.13
2019-03-15T06:52:38.145Z,21.40
2019-03-15T06:53:41.781Z,20.17
2019-03-15T06:54:45.354Z,21.77
2019-03-15T06:55:48.994Z,20.97
2019-03-15T06:56:52.621Z,21.00
2019-03-15T06:57:56.290Z,21.17
2019-03-15T06:58:59.931Z,20.03
2019-03-15T07:00:04.159Z,21.47
2019-03-15T07:01:07.808Z,20.87
2019-03-15T07:02:11.509Z,23.77
2019-03-15T07:03:17.274Z,25.60
2019-03-15T07:04:20.902Z,23.33
2019-03-15T07:05:24.532Z,23.63
2019-03-15T07:06:28.096Z,23.30
2019-03-15T07:07:31.786Z,22.50
2019-03-15T07:08:35.475Z,21.07
2019-03-15T07:09:39.112Z,19.77
2019-03-15T07:10:44.174Z,21.93
2019-03-15T07:11:48.162Z,20.37
2019-03-15T07:12:51.792Z,21.50
2019-03-15T07:13:55.889Z,18.20
2019-03-15T07:14:59.493Z,15.87
2019-03-15T07:16:03.181Z,18.07
2019-03-15T07:17:06.821Z,19.57
2019-03-15T07:18:10.538Z,19.97
2019-03-15T07:19:25.607Z,16.70
2019-03-15T07:20:20.681Z,17.77
2019-03-15T07:21:24.629Z,17.23
2019-03-15T07:22:28.265Z,17.97
2019-03-15T07:23:31.907Z,21.03
2019-03-15T07:24:35.546Z,18.63
2019-03-15T07:25:39.222Z,19.20
2019-03-15T07:26:43.862Z,18.43
2019-03-15T07:27:48.019Z,20.33
2019-03-15T07:28:51.660Z,20.17
2019-03-15T07:29:55.304Z,19.33
2019-03-15T07:30:58.983Z,19.77
2019-03-15T07:32:03.000Z,22.87
2019-03-15T07:33:07.945Z,20.83
2019-03-15T07:34:13.928Z,23.73
2019-03-15T07:35:16.941Z,21.83
2019-03-15T07:36:20.625Z,22.03
2019-03-15T07:37:24.256Z,19.33
2019-03-15T07:38:27.892Z,20.80
2019-03-15T07:39:32.433Z,22.43
2019-03-15T07:40:36.015Z,21.70
2019-03-15T07:41:39.692Z,20.00
2019-03-15T07:42:43.320Z,26.40
2019-03-15T07:43:47.413Z,22.43
2019-03-15T07:44:51.420Z,21.07
2019-03-15T07:45:55.048Z,20.13
2019-03-15T07:46:58.720Z,22.73
2019-03-15T07:48:02.345Z,26.83
2019-03-15T07:49:05.991Z,19.50
2019-03-15T07:50:16.168Z,20.87
2019-03-15T07:51:19.795Z,20.00
2019-03-15T07:52:23.459Z,22.47
2019-03-15T07:53:27.137Z,26.57
2019-03-15T07:54:38.016Z,24.93
2019-03-15T07:55:36.604Z,24.20
2019-03-15T07:56:40.272Z,25.90
2019-03-15T07:57:43.870Z,26.03
2019-03-15T07:58:47.507Z,23.93
2019-03-15T07:59:51.137Z,20.30
2019-03-15T08:00:54.765Z,23.37
2019-03-15T08:01:58.403Z,19.10
2019-03-15T08:03:02.062Z,20.47
2019-03-15T08:04:16.287Z,25.30
2019-03-15T08:05:11.483Z,19.57
2019-03-15T08:06:15.112Z,18.13
2019-03-15T08:07:20.167Z,16.87
2019-03-15T08:08:24.151Z,15.90
2019-03-15T08:09:27.809Z,18.60
2019-03-15T08:10:31.522Z,18.93
2019-03-15T08:11:35.157Z,17.10
2019-03-15T08:12:39.001Z,17.87
2019-03-15T08:13:42.720Z,17.20
2019-03-15T08:14:46.360Z,20.37
2019-03-15T08:15:50.005Z,19.70
2019-03-15T08:16:53.640Z,19.67
2019-03-15T08:17:58.937Z,15.50
2019-03-15T08:19:05.171Z,18.83
2019-03-15T08:20:13.510Z,18.40
2019-03-15T08:21:17.182Z,17.73
2019-03-15T08:22:20.993Z,25.23
2019-03-15T08:23:25.362Z,20.57
2019-03-15T08:24:29.006Z,20.17
2019-03-15T08:25:32.644Z,21.23
2019-03-15T08:26:36.329Z,20.63
2019-03-15T08:27:41.305Z,22.53
2019-03-15T08:28:44.946Z,15.60
2019-03-15T08:29:48.587Z,16.00
2019-03-15T08:30:52.229Z,14.67
2019-03-15T08:31:55.905Z,15.80
2019-03-15T08:33:09.586Z,17.63
2019-03-15T08:34:05.180Z,15.40
2019-03-15T08:35:09.908Z,22.27
2019-03-15T08:36:13.512Z,18.87
2019-03-15T08:37:17.185Z,17.63
2019-03-15T08:38:20.824Z,19.60
2019-03-15T08:39:24.891Z,17.30
2019-03-15T08:40:28.538Z,15.33
2019-03-15T08:41:32.190Z,16.33
2019-03-15T08:42:35.856Z,16.33
2019-03-15T08:43:39.490Z,16.50
2019-03-15T08:44:43.058Z,15.53
2019-03-15T08:45:47.125Z,12.50
2019-03-15T08:46:53.561Z,13.87
2019-03-15T08:47:57.247Z,15.87
2019-03-15T08:49:00.892Z,14.60
2019-03-15T08:50:07.031Z,14.73
2019-03-15T08:51:11.084Z,14.97
2019-03-15T08:52:14.799Z,18.13
2019-03-15T08:53:18.445Z,16.77
2019-03-15T08:54:22.081Z,16.37
2019-03-15T08:55:25.765Z,17.93
2019-03-15T08:56:29.401Z,16.37
2019-03-15T08:57:33.051Z,16.60
2019-03-15T08:58:36.734Z,17.30
2019-03-15T08:59:52.769Z,15.10
2019-03-15T09:00:46.183Z,17.63
2019-03-15T09:01:49.831Z,15.90
2019-03-15T09:02:53.484Z,14.90
2019-03-15T09:03:57.157Z,16.57
2019-03-15T09:05:00.795Z,19.93
2019-03-15T09:06:04.441Z,17.43
2019-03-15T09:07:08.073Z,18.77
2019-03-15T09:08:11.707Z,18.70
2019-03-15T09:09:15.404Z,15.23
2019-03-15T09:10:24.021Z,15.77
2019-03-15T09:11:25.105Z,23.53
2019-03-15T09:12:28.814Z,20.57
2019-03-15T09:13:32.446Z,18.47
2019-03-15T09:14:36.113Z,17.40
2019-03-15T09:15:39.756Z,18.37
2019-03-15T09:16:43.401Z,15.47
2019-03-15T09:17:47.341Z,25.70
2019-03-15T09:18:50.995Z,21.53
2019-03-15T09:19:54.667Z,16.97
2019-03-15T09:20:58.309Z,20.10
2019-03-15T09:22:01.953Z,17.77
2019-03-15T09:23:07.515Z,16.83
2019-03-15T09:24:13.681Z,17.97
2019-03-15T09:25:20.185Z,16.60
2019-03-15T09:26:23.671Z,16.17
2019-03-15T09:27:33.002Z,17.23
2019-03-15T09:28:36.579Z,19.90
2019-03-15T09:29:41.802Z,18.23
2019-03-15T09:30:45.467Z,23.33
2019-03-15T09:31:49.110Z,24.30
2019-03-15T09:32:52.746Z,26.53
2019-03-15T09:33:56.387Z,25.73
2019-03-15T09:34:59.953Z,20.53
2019-03-15T09:36:03.704Z,14.63
2019-03-15T09:37:07.333Z,17.20
2019-03-15T09:38:10.982Z,18.73
2019-03-15T09:39:14.728Z,17.77
2019-03-15T09:40:18.379Z,20.03
2019-03-15T09:41:31.450Z,18.97
2019-03-15T09:42:27.431Z,18.20
2019-03-15T09:43:31.465Z,16.43
2019-03-15T09:44:37.531Z,15.53
2019-03-15T09:45:40.929Z,13.33
2019-03-15T09:46:44.591Z,15.17
2019-03-15T09:47:48.352Z,12.47
2019-03-15T09:48:52.056Z,11.50
2019-03-15T09:49:55.696Z,15.10
2019-03-15T09:50:59.421Z,15.90
2019-03-15T09:52:03.094Z,15.20
2019-03-15T09:53:06.733Z,18.80
2019-03-15T09:54:10.493Z,12.17
2019-03-15T09:55:14.741Z,11.53
2019-03-15T09:56:18.400Z,13.33
2019-03-15T09:57:22.067Z,13.07
2019-03-15T09:58:25.700Z,17.00
2019-03-15T09:59:29.437Z,15.50
2019-03-15T10:00:33.079Z,15.30
2019-03-15T10:01:36.718Z,11.67
2019-03-15T10:02:40.390Z,11.40
2019-03-15T10:03:44.037Z,11.60
2019-03-15T10:04:47.672Z,12.40
2019-03-15T10:05:51.311Z,9.80
2019-03-15T10:06:54.953Z,10.90
2019-03-15T10:07:58.641Z,15.33
2019-03-15T10:09:02.345Z,11.33
2019-03-15T10:10:13.973Z,10.53
2019-03-15T10:11:17.340Z,9.20
2019-03-15T10:12:20.970Z,9.67
2019-03-15T10:13:24.718Z,12.20
2019-03-15T10:14:28.382Z,11.80
2019-03-15T10:15:32.038Z,8.33
2019-03-15T10:16:35.684Z,11.83
2019-03-15T10:17:39.296Z,8.53
2019-03-15T10:18:43.052Z,9.50
2019-03-15T10:19:46.716Z,10.37
2019-03-15T10:20:50.375Z,14.37
2019-03-15T10:21:54.074Z,7.30
2019-03-15T10:23:05.814Z,8.07
2019-03-15T10:24:03.229Z,10.60
2019-03-15T10:25:09.742Z,8.83
2019-03-15T10:26:14.991Z,8.63
2019-03-15T10:27:20.298Z,10.77
2019-03-15T10:28:23.928Z,7.90
2019-03-15T10:29:27.624Z,9.73
2019-03-15T10:30:31.280Z,8.90
2019-03-15T10:31:35.243Z,7.53
2019-03-15T10:32:38.876Z,9.80
2019-03-15T10:33:50.314Z,8.33
2019-03-15T10:34:49.251Z,11.07
2019-03-15T10:35:53.244Z,9.47
2019-03-15T10:36:56.929Z,9.07
2019-03-15T10:38:11.783Z,9.33
2019-03-15T10:39:15.421Z,8.57
2019-03-15T10:40:21.006Z,10.70
2019-03-15T10:41:24.634Z,8.13
2019-03-15T10:42:31.254Z,8.57
2019-03-15T10:43:34.904Z,9.20
2019-03-15T10:44:38.896Z,10.53
2019-03-15T10:45:42.562Z,7.70
2019-03-15T10:46:46.207Z,9.93
2019-03-15T10:47:49.843Z,7.47
2019-03-15T10:48:53.658Z,11.87
2019-03-15T10:49:57.267Z,10.77
2019-03-15T10:51:01.022Z,7.57
2019-03-15T10:52:04.653Z,7.90
2019-03-15T10:53:08.360Z,9.27
2019-03-15T10:54:11.994Z,8.63
2019-03-15T10:55:15.823Z,8.97
2019-03-15T10:56:19.515Z,9.90
2019-03-15T10:57:23.147Z,6.83
2019-03-15T10:58:26.763Z,9.00
2019-03-15T10:59:30.390Z,9.87
2019-03-15T11:00:34.028Z,11.93
2019-03-15T11:01:37.698Z,8.50
2019-03-15T11:02:41.334Z,7.10
2019-03-15T11:03:45.032Z,7.37
2019-03-15T11:04:48.742Z,7.33
2019-03-15T11:05:52.372Z,6.37
2019-03-15T11:06:56.397Z,11.80
2019-03-15T11:08:00.014Z,9.23
2019-03-15T11:09:04.448Z,10.80
2019-03-15T11:10:10.482Z,9.43
2019-03-15T11:11:14.114Z,8.37
2019-03-15T11:12:17.852Z,9.70
2019-03-15T11:13:21.802Z,8.67
2019-03-15T11:14:25.433Z,7.63
2019-03-15T11:15:29.066Z,8.87
2019-03-15T11:16:32.699Z,7.53
2019-03-15T11:17:36.382Z,8.07
2019-03-15T11:18:40.007Z,7.57
2019-03-15T11:19:43.642Z,9.60
2019-03-15T11:20:47.269Z,10.60
2019-03-15T11:21:50.900Z,10.97
2019-03-15T11:22:54.509Z,10.10
2019-03-15T11:23:58.137Z,9.60
2019-03-15T11:25:01.846Z,11.77
2019-03-15T11:26:13.603Z,16.50
2019-03-15T11:27:10.828Z,9.43
2019-03-15T11:28:14.493Z,5.50
2019-03-15T11:29:18.122Z,7.73
2019-03-15T11:30:21.749Z,7.50
2019-03-15T11:31:25.378Z,6.47
2019-03-15T11:32:29.036Z,6.57
2019-03-15T11:33:32.663Z,6.93
2019-03-15T11:34:36.292Z,9.57
2019-03-15T11:35:39.928Z,10.13
2019-03-15T11:36:43.569Z,9.90
2019-03-15T11:37:47.192Z,8.87
2019-03-15T11:38:50.865Z,8.23
2019-03-15T11:39:54.505Z,8.37
2019-03-15T11:40:58.141Z,6.63
2019-03-15T11:42:01.764Z,6.70
2019-03-15T11:43:05.406Z,5.77
2019-03-15T11:44:09.070Z,6.53
2019-03-15T11:45:13.605Z,5.03
2019-03-15T11:46:17.169Z,6.33
2019-03-15T11:47:21.127Z,5.30
2019-03-15T11:48:24.743Z,7.90
2019-03-15T11:49:28.676Z,9.27
2019-03-15T11:50:32.803Z,5.43
2019-03-15T11:51:36.444Z,6.13
2019-03-15T11:52:40.171Z,7.67
2019-03-15T11:53:43.804Z,8.78
2019-03-15T11:54:49.784Z,5.47
2019-03-15T11:55:52.835Z,4.80
2019-03-15T11:56:56.478Z,6.50
2019-03-15T11:58:00.430Z,5.70
2019-03-15T11:59:04.068Z,4.83
2019-03-15T12:00:10.797Z,5.60
2019-03-15T12:01:14.445Z,5.72
2019-03-15T12:02:18.074Z,6.00
2019-03-15T12:03:21.783Z,5.40
2019-03-15T12:04:25.402Z,5.80
2019-03-15T12:05:28.998Z,4.28
2019-03-15T12:06:32.684Z,6.17
2019-03-15T12:07:36.323Z,6.53
2019-03-15T12:08:39.950Z,5.28
2019-03-15T12:09:43.587Z,5.30
2019-03-15T12:10:47.248Z,5.20
2019-03-15T12:11:50.875Z,7.40
2019-03-15T12:12:54.508Z,6.50
2019-03-15T12:13:58.222Z,5.55
2019-03-15T12:15:01.886Z,13.45
2019-03-15T12:16:05.534Z,5.53
2019-03-15T12:17:09.172Z,12.25
2019-03-15T12:18:12.799Z,8.95
2019-03-15T12:19:16.434Z,6.35
2019-03-15T12:20:20.143Z,4.37
2019-03-15T12:21:24.003Z,6.58
2019-03-15T12:22:27.567Z,5.00
2019-03-15T12:23:31.272Z,5.22
2019-03-15T12:24:34.850Z,6.22
2019-03-15T12:25:38.476Z,5.58
2019-03-15T12:26:42.153Z,5.05
2019-03-15T12:27:45.849Z,6.15
2019-03-15T12:28:49.488Z,4.90
2019-03-15T12:29:53.124Z,8.43
2019-03-15T12:30:57.177Z,6.28
2019-03-15T12:32:00.853Z,6.53
2019-03-15T12:33:04.481Z,4.35
2019-03-15T12:34:08.119Z,8.53
2019-03-15T12:35:13.625Z,7.75
2019-03-15T12:36:17.254Z,6.08
2019-03-15T12:37:20.840Z,4.37
2019-03-15T12:38:24.477Z,5.35
2019-03-15T12:39:28.106Z,5.67
2019-03-15T12:40:31.743Z,4.53
2019-03-15T12:41:35.388Z,4.62
2019-03-15T12:42:39.062Z,3.30
2019-03-15T12:43:43.132Z,8.25
2019-03-15T12:44:46.761Z,4.62
2019-03-15T12:45:50.401Z,4.03
2019-03-15T12:46:54.042Z,3.55
2019-03-15T12:47:57.970Z,5.13
2019-03-15T12:49:01.608Z,6.33
2019-03-15T12:50:11.806Z,4.63
2019-03-15T12:51:15.122Z,3.65
2019-03-15T12:52:20.607Z,2.87
2019-03-15T12:53:24.148Z,3.55
2019-03-15T12:54:27.788Z,3.87
2019-03-15T12:55:31.336Z,3.90
2019-03-15T12:56:35.071Z,5.57
2019-03-15T12:57:38.707Z,3.97
2019-03-15T12:58:42.359Z,4.03
2019-03-15T12:59:46.374Z,4.35
2019-03-15T13:00:50.012Z,5.07
2019-03-15T13:01:53.646Z,5.42
2019-03-15T13:02:57.279Z,7.90
2019-03-15T13:04:00.949Z,5.28
2019-03-15T13:05:05.374Z,7.40
2019-03-15T13:06:09.010Z,5.50
2019-03-15T13:07:12.649Z,3.97
2019-03-15T13:08:16.218Z,3.33
2019-03-15T13:09:19.892Z,6.93
2019-03-15T13:10:23.826Z,6.33
2019-03-15T13:11:27.448Z,7.90
2019-03-15T13:12:31.071Z,5.80
2019-03-15T13:13:34.699Z,5.10
2019-03-15T13:14:38.283Z,3.90
2019-03-15T13:15:41.904Z,4.27
2019-03-15T13:16:45.537Z,4.57
2019-03-15T13:17:49.175Z,4.73
2019-03-15T13:18:52.802Z,5.57
2019-03-15T13:19:56.467Z,4.70
2019-03-15T13:21:00.100Z,4.80
2019-03-15T13:22:03.736Z,5.70
2019-03-15T13:23:07.362Z,3.53
2019-03-15T13:24:10.992Z,3.50
2019-03-15T13:25:14.628Z,5.13
2019-03-15T13:26:18.256Z,3.43
2019-03-15T13:27:22.228Z,4.47
2019-03-15T13:28:25.869Z,8.30
2019-03-15T13:29:29.574Z,3.40
2019-03-15T13:30:33.240Z,3.57
2019-03-15T13:31:36.874Z,5.90
2019-03-15T13:32:40.511Z,4.97
2019-03-15T13:33:44.144Z,6.27
2019-03-15T13:34:47.696Z,6.43
2019-03-15T13:35:51.432Z,6.40
2019-03-15T13:36:55.050Z,5.10
2019-03-15T13:37:58.688Z,4.80
2019-03-15T13:39:02.252Z,5.17
2019-03-15T13:40:16.862Z,4.00
2019-03-15T13:41:20.528Z,6.70
2019-03-15T13:42:24.169Z,6.53
2019-03-15T13:43:27.893Z,3.90
2019-03-15T13:44:31.600Z,4.63
2019-03-15T13:45:35.297Z,4.13
2019-03-15T13:46:38.956Z,5.90
2019-03-15T13:47:42.579Z,7.20
2019-03-15T13:48:46.293Z,5.40
2019-03-15T13:49:49.928Z,5.20